Time;durP1;ratioP1;P1;durP2;ratioP2;P2;SDS_P1;SDS_P2;PMS_P1;PMS_P2;Temp;Humidity;BMP_temperature;BMP_pressure;BME280_temperature;BME280_humidity;BME280_pressure;Samples;Min_cycle;Max_cycle;Signal;HPM_P1;HPM_P2
2022/05/22 00:00:42;;;;;;;11.05;2.00;;;;;;;9.92;57.29;101098.09;5015402;28;20153;-70
2022/05/22 00:03:09;;;;;;;12.65;1.85;;;;;;;9.89;57.22;101095.72;5015382;28;20049;-70
2022/05/22 00:05:36;;;;;;;7.18;1.52;;;;;;;9.94;57.14;101101.47;5014747;28;20089;-69
2022/05/22 00:08:03;;;;;;;7.32;1.60;;;;;;;9.92;57.38;101098.09;5014475;28;20049;-69
2022/05/22 00:10:30;;;;;;;11.05;1.98;;;;;;;9.90;57.55;101104.59;5014940;28;20437;-70
2022/05/22 00:12:56;;;;;;;11.90;2.22;;;;;;;9.87;57.71;101103.06;5015153;28;20133;-70
2022/05/22 00:15:23;;;;;;;12.30;2.40;;;;;;;9.90;57.74;101096.56;5014380;28;20513;-70
2022/05/22 00:17:49;;;;;;;9.38;1.80;;;;;;;9.88;57.94;101102.06;5013941;28;20129;-71
2022/05/22 00:20:16;;;;;;;5.43;2.05;;;;;;;9.85;58.07;101105.03;5014037;28;20109;-70
2022/05/22 00:22:42;;;;;;;8.80;2.63;;;;;;;9.81;58.02;101106.31;5014098;28;20140;-70
2022/05/22 00:25:10;;;;;;;7.35;1.50;;;;;;;9.75;58.55;101106.88;5013583;28;20136;-69
2022/05/22 00:27:39;;;;;;;5.95;1.58;;;;;;;9.78;58.38;101101.25;5013545;28;20062;-70
2022/05/22 00:30:06;;;;;;;9.80;1.80;;;;;;;9.70;58.67;101101.13;5014204;28;20465;-70
2022/05/22 00:32:33;;;;;;;5.78;1.63;;;;;;;9.69;58.89;101097.63;5014005;28;20513;-70
2022/05/22 00:34:59;;;;;;;9.25;1.40;;;;;;;9.71;58.67;101100.13;5014169;28;20140;-70
2022/05/22 00:37:25;;;;;;;7.70;1.98;;;;;;;9.68;58.88;101098.59;5014482;28;20050;-70
2022/05/22 00:39:52;;;;;;;9.43;1.83;;;;;;;9.55;59.43;101098.91;5013915;28;20053;-70
2022/05/22 00:42:21;;;;;;;9.18;1.67;;;;;;;9.60;59.48;101097.63;5013621;28;20050;-69
2022/05/22 00:44:48;;;;;;;10.65;2.47;;;;;;;9.61;59.31;101088.59;5014591;28;20117;-69
2022/05/22 00:47:15;;;;;;;9.00;2.13;;;;;;;9.61;59.51;101091.28;5013893;28;20049;-69
2022/05/22 00:49:43;;;;;;;9.48;1.60;;;;;;;9.59;59.33;101099.47;5013731;28;20088;-69
2022/05/22 00:52:15;;;;;;;8.02;1.42;;;;;;;9.56;59.51;101092.56;5014308;28;20068;-69
2022/05/22 00:54:56;;;;;;;9.18;2.10;;;;;;;9.56;59.57;101097.06;5014095;28;20100;-69
2022/05/22 00:57:30;;;;;;;9.18;1.83;;;;;;;9.47;59.72;101101.47;5014757;28;20470;-71
2022/05/22 01:00:01;;;;;;;9.70;1.88;;;;;;;9.49;59.74;101088.78;5013693;28;20054;-70
2022/05/22 01:03:26;;;;;;;9.85;1.58;;;;;;;9.49;59.90;101094.13;5013982;28;20105;-70
2022/05/22 01:09:02;;;;;;;10.88;2.65;;;;;;;9.39;60.71;101092.47;5014474;28;20156;-70
2022/05/22 01:11:33;;;;;;;7.72;2.05;;;;;;;9.29;61.00;101097.81;5014491;28;20081;-70
2022/05/22 01:14:11;;;;;;;15.98;1.70;;;;;;;9.27;61.14;101097.13;5014402;28;20141;-70
2022/05/22 01:16:38;;;;;;;7.80;2.00;;;;;;;9.22;61.59;101099.34;5014282;28;20136;-70
2022/05/22 01:19:13;;;;;;;10.25;1.90;;;;;;;9.15;61.90;101096.38;5014483;28;20441;-71
2022/05/22 01:21:41;;;;;;;10.90;1.70;;;;;;;9.12;61.97;101096.66;5014953;28;20115;-70
2022/05/22 01:24:07;;;;;;;11.38;2.05;;;;;;;9.11;62.16;101099.50;5014576;28;20472;-70
2022/05/22 01:26:34;;;;;;;8.40;1.67;;;;;;;9.08;62.10;101101.47;5014313;28;20096;-71
2022/05/22 01:29:01;;;;;;;11.77;2.00;;;;;;;9.03;62.66;101095.69;5014110;28;20510;-70
2022/05/22 01:31:27;;;;;;;5.80;1.50;;;;;;;9.04;62.45;101097.38;5014590;28;20497;-71
2022/05/22 01:33:54;;;;;;;9.20;1.67;;;;;;;8.98;62.74;101095.25;5014507;28;20060;-70
2022/05/22 01:36:20;;;;;;;10.00;1.77;;;;;;;9.00;62.64;101090.63;5014121;28;20137;-71
2022/05/22 01:38:47;;;;;;;10.20;2.60;;;;;;;8.95;62.70;101092.03;5016096;28;20136;-69
2022/05/22 01:41:13;;;;;;;14.35;1.80;;;;;;;8.91;63.21;101087.94;5017097;28;20054;-71
2022/05/22 01:43:39;;;;;;;11.55;1.92;;;;;;;8.85;63.28;101089.38;5017843;28;20049;-71
2022/05/22 01:46:07;;;;;;;11.52;1.70;;;;;;;8.87;63.38;101092.72;5017683;28;20383;-71
2022/05/22 01:48:34;;;;;;;11.73;2.15;;;;;;;8.88;63.39;101099.75;5017394;28;20050;-69
2022/05/22 01:51:00;;;;;;;15.20;1.73;;;;;;;8.81;63.25;101080.75;5017800;28;20494;-71
2022/05/22 01:53:27;;;;;;;14.48;2.35;;;;;;;8.82;63.38;101082.47;5018274;28;20108;-71
2022/05/22 01:55:53;;;;;;;14.95;2.70;;;;;;;8.81;63.44;101088.78;5017846;28;20437;-71
2022/05/22 01:58:20;;;;;;;12.55;2.10;;;;;;;8.82;63.43;101086.97;5018501;28;20474;-71
2022/05/22 02:00:46;;;;;;;14.32;1.90;;;;;;;8.82;63.59;101087.81;5017816;28;20461;-71
2022/05/22 02:03:13;;;;;;;10.27;1.98;;;;;;;8.86;63.55;101096.41;5017662;28;20085;-71
2022/05/22 02:05:40;;;;;;;10.80;1.75;;;;;;;8.85;63.57;101092.03;5017154;28;20072;-71
2022/05/22 02:08:19;;;;;;;12.95;1.85;;;;;;;8.81;63.71;101083.41;5016977;28;20129;-71
2022/05/22 02:10:54;;;;;;;9.85;1.80;;;;;;;8.80;63.82;101088.94;4999900;28;20054;-70
2022/05/22 02:13:23;;;;;;;7.00;1.70;;;;;;;8.77;63.81;101081.19;5016862;28;20046;-71
2022/05/22 02:15:51;;;;;;;11.30;2.08;;;;;;;8.74;64.08;101089.47;5017972;28;20489;-70
2022/05/22 02:18:18;;;;;;;7.53;1.80;;;;;;;8.77;63.82;101075.81;5016774;28;20049;-69
2022/05/22 02:20:45;;;;;;;7.63;1.80;;;;;;;8.77;64.16;101081.19;5016803;28;20103;-70
2022/05/22 02:23:11;;;;;;;10.55;1.95;;;;;;;8.76;64.16;101082.16;5016423;28;20145;-70
2022/05/22 02:25:43;;;;;;;14.52;1.73;;;;;;;8.75;64.29;101080.50;5016867;28;20093;-70
2022/05/22 02:28:12;;;;;;;10.45;2.22;;;;;;;8.74;64.19;101076.09;5016886;28;20141;-69
2022/05/22 02:30:39;;;;;;;8.68;1.40;;;;;;;8.75;64.45;101072.47;5017140;28;20080;-70
2022/05/22 02:33:05;;;;;;;12.48;2.42;;;;;;;8.72;64.65;101076.25;5016520;28;20137;-71
2022/05/22 02:35:32;;;;;;;14.90;2.85;;;;;;;8.74;64.63;101076.09;5016905;28;20077;-71
2022/05/22 02:37:59;;;;;;;12.70;3.17;;;;;;;8.68;64.76;101076.66;5017775;28;20141;-71
2022/05/22 02:40:28;;;;;;;7.88;2.22;;;;;;;8.66;64.75;101076.81;5016690;28;20045;-71
2022/05/22 02:42:55;;;;;;;11.32;2.47;;;;;;;8.69;64.79;101075.69;5016998;28;20046;-71
2022/05/22 02:45:26;;;;;;;11.30;1.80;;;;;;;8.66;64.74;101078.63;5016532;28;20064;-71
2022/05/22 02:47:53;;;;;;;11.63;1.73;;;;;;;8.64;65.07;101075.25;5016354;28;20050;-69
2022/05/22 02:50:23;;;;;;;10.35;1.42;;;;;;;8.56;65.44;101063.41;5016578;28;20450;-70
2022/05/22 02:52:50;;;;;;;8.07;2.10;;;;;;;8.55;65.36;101071.59;5016584;28;20136;-71
2022/05/22 02:55:19;;;;;;;7.07;1.70;;;;;;;8.53;65.50;101074.38;5016329;28;20145;-70
2022/05/22 02:57:46;;;;;;;12.75;1.70;;;;;;;8.55;65.76;101064.41;4999582;28;20145;-70
2022/05/22 03:00:20;;;;;;;6.32;1.85;;;;;;;8.48;65.86;101065.94;5016236;28;20046;-70
2022/05/22 03:02:47;;;;;;;10.95;2.05;;;;;;;8.44;66.32;101075.22;5015751;28;20096;-70
2022/05/22 03:05:14;;;;;;;10.20;2.13;;;;;;;8.45;66.23;101068.91;5016087;28;20054;-70
2022/05/22 03:07:45;;;;;;;13.00;2.15;;;;;;;8.37;66.58;101061.56;5016216;28;20046;-70
2022/05/22 03:10:14;;;;;;;10.70;1.60;;;;;;;8.44;66.48;101067.22;5015540;28;20136;-70
2022/05/22 03:12:40;;;;;;;12.43;2.00;;;;;;;8.38;66.69;101068.59;5016274;28;20129;-70
2022/05/22 03:15:10;;;;;;;18.55;3.08;;;;;;;8.38;66.95;101065.91;5016233;28;20445;-69
2022/05/22 03:17:37;;;;;;;11.10;2.50;;;;;;;8.32;67.09;101060.28;5015953;28;20057;-70
2022/05/22 03:20:05;;;;;;;13.18;2.30;;;;;;;8.35;67.16;101057.34;5016304;28;20053;-70
2022/05/22 03:22:31;;;;;;;10.93;2.58;;;;;;;8.32;67.34;101058.44;5016140;28;20542;-69
2022/05/22 03:24:58;;;;;;;9.10;2.10;;;;;;;8.34;67.22;101061.00;5015928;28;20387;-71
2022/05/22 03:27:24;;;;;;;14.65;4.10;;;;;;;8.33;67.50;101064.63;5015677;28;20145;-71
2022/05/22 03:29:51;;;;;;;11.90;2.63;;;;;;;8.28;67.87;101064.22;5015606;28;20138;-70
2022/05/22 03:32:18;;;;;;;13.02;2.40;;;;;;;8.31;67.37;101059.44;5016098;28;20490;-70
2022/05/22 03:34:44;;;;;;;11.80;2.85;;;;;;;8.29;67.82;101071.25;5015864;28;20080;-71
2022/05/22 03:37:12;;;;;;;12.02;1.70;;;;;;;8.31;67.75;101075.47;5015924;28;20050;-70
2022/05/22 03:39:38;;;;;;;10.02;1.85;;;;;;;8.30;68.54;101073.78;5015119;28;20085;-70
2022/05/22 03:42:05;;;;;;;19.20;2.92;;;;;;;8.34;68.29;101074.38;5016179;28;20060;-70
2022/05/22 03:44:31;;;;;;;6.75;1.85;;;;;;;8.37;68.27;101072.25;5015582;28;20056;-70
2022/05/22 03:46:58;;;;;;;10.30;1.42;;;;;;;8.46;67.86;101078.59;5015651;28;20469;-71
2022/05/22 03:49:24;;;;;;;11.48;1.90;;;;;;;8.47;67.72;101074.97;5015583;28;20050;-70
2022/05/22 03:51:51;;;;;;;12.95;1.77;;;;;;;8.53;67.39;101077.06;5015246;28;20056;-70
2022/05/22 03:54:17;;;;;;;9.48;2.25;;;;;;;8.47;67.85;101074.97;5014796;28;20140;-70
2022/05/22 03:56:44;;;;;;;11.85;2.05;;;;;;;8.52;67.28;101075.38;5015260;28;20133;-70
2022/05/22 03:59:12;;;;;;;12.93;2.22;;;;;;;8.53;67.53;101070.88;5015227;28;20474;-69
2022/05/22 04:01:38;;;;;;;12.95;2.05;;;;;;;8.49;67.48;101064.94;5015018;28;20101;-69
2022/05/22 04:04:05;;;;;;;14.05;2.50;;;;;;;8.41;67.46;101075.50;5015162;28;20050;-69
2022/05/22 04:06:31;;;;;;;10.77;2.13;;;;;;;8.45;67.58;101060.03;5015250;28;20054;-70
2022/05/22 04:08:58;;;;;;;7.22;1.80;;;;;;;8.47;67.70;101063.38;5015121;28;20089;-70
2022/05/22 04:11:24;;;;;;;12.38;2.08;;;;;;;8.49;67.57;101081.00;5015353;28;20046;-71
2022/05/22 04:13:51;;;;;;;13.02;2.40;;;;;;;8.56;67.65;101079.47;5015071;28;20077;-70
2022/05/22 04:16:17;;;;;;;13.50;2.40;;;;;;;8.48;67.71;101078.47;5014874;28;20088;-70
2022/05/22 04:18:44;;;;;;;13.13;2.22;;;;;;;8.50;67.72;101080.00;5014919;28;20050;-70
2022/05/22 04:21:11;;;;;;;14.38;1.70;;;;;;;8.48;67.74;101076.63;5015463;28;20144;-70
2022/05/22 04:26:27;;;;;;;12.70;2.45;;;;;;;8.53;67.80;101079.72;5015060;28;20050;-71
2022/05/22 04:28:54;;;;;;;10.88;2.08;;;;;;;8.56;67.48;101078.63;5014394;28;20142;-71
2022/05/22 04:31:20;;;;;;;14.02;3.00;;;;;;;8.60;67.67;101083.53;5015307;28;20450;-71
2022/05/22 04:33:47;;;;;;;17.20;2.42;;;;;;;8.74;67.21;101090.31;5014023;28;20049;-71
2022/05/22 04:36:13;;;;;;;13.18;2.35;;;;;;;8.74;67.05;101084.97;5014054;28;20049;-70
2022/05/22 04:38:40;;;;;;;12.85;2.50;;;;;;;8.79;66.98;101097.94;5014830;28;20501;-70
2022/05/22 04:41:06;;;;;;;12.18;2.20;;;;;;;8.80;66.37;101097.78;5014883;28;20077;-70
2022/05/22 04:43:33;;;;;;;11.30;2.28;;;;;;;8.83;66.65;101097.50;5014830;28;20136;-70
2022/05/22 04:45:59;;;;;;;16.02;2.55;;;;;;;8.85;66.42;101100.91;5014492;28;20136;-70
2022/05/22 04:48:28;;;;;;;12.95;2.00;;;;;;;8.84;66.66;101101.03;5015326;28;20510;-70
2022/05/22 04:50:55;;;;;;;15.30;2.20;;;;;;;8.86;66.53;101101.75;5014784;28;20506;-70
2022/05/22 04:53:24;;;;;;;14.00;2.15;;;;;;;8.77;67.00;101106.09;5014881;28;20132;-71
2022/05/22 04:55:51;;;;;;;11.55;2.33;;;;;;;8.85;66.92;101105.41;5014591;28;20132;-71
2022/05/22 04:58:19;;;;;;;18.88;3.33;;;;;;;8.90;67.12;101102.31;5014779;28;20149;-70
2022/05/22 05:00:46;;;;;;;11.18;2.17;;;;;;;8.94;66.97;101109.91;5014401;28;20092;-69
2022/05/22 05:03:13;;;;;;;9.73;2.25;;;;;;;8.98;66.85;101105.97;5014732;28;20084;-71
2022/05/22 05:05:40;;;;;;;12.55;2.97;;;;;;;9.07;66.52;101113.16;5015358;28;20089;-71
2022/05/22 05:08:07;;;;;;;10.80;3.20;;;;;;;8.92;67.29;101108.34;5014584;28;20046;-70
2022/05/22 05:10:33;;;;;;;9.75;2.45;;;;;;;9.05;67.25;101106.25;5014715;28;20077;-71
2022/05/22 05:13:00;;;;;;;12.20;2.65;;;;;;;9.09;66.78;101105.84;5017847;28;20132;-71
2022/05/22 05:15:29;;;;;;;14.10;2.35;;;;;;;9.05;67.11;101112.44;5018937;28;20092;-71
2022/05/22 05:17:56;;;;;;;16.63;3.45;;;;;;;9.07;66.99;101109.66;5018531;28;20460;-71
2022/05/22 05:20:23;;;;;;;14.20;2.90;;;;;;;9.21;66.35;101108.38;5018425;28;20092;-71
2022/05/22 05:22:50;;;;;;;17.95;4.05;;;;;;;9.16;66.65;101100.78;5018882;28;20038;-71
2022/05/22 05:25:17;;;;;;;18.15;3.22;;;;;;;9.12;66.94;101102.03;5019242;28;20054;-70
2022/05/22 05:27:50;;;;;;;10.50;2.50;;;;;;;9.22;66.43;101099.34;5018250;28;20057;-70
2022/05/22 05:30:17;;;;;;;14.10;2.72;;;;;;;9.30;66.29;101094.16;5017563;28;20054;-70
2022/05/22 05:32:44;;;;;;;13.43;3.35;;;;;;;9.30;66.47;101100.38;5017343;28;20046;-70
2022/05/22 05:35:11;;;;;;;12.13;2.60;;;;;;;9.39;66.23;101104.00;5017926;28;20457;-70
2022/05/22 05:37:39;;;;;;;16.27;2.83;;;;;;;9.43;66.19;101109.91;5017605;28;20096;-70
2022/05/22 05:40:07;;;;;;;19.38;3.00;;;;;;;9.52;65.87;101103.72;5018766;28;20115;-69
2022/05/22 05:42:35;;;;;;;12.85;3.45;;;;;;;9.39;66.27;101103.16;5018006;28;20045;-71
2022/05/22 05:45:05;;;;;;;14.95;2.90;;;;;;;9.43;66.16;101113.44;5017695;28;20054;-69
2022/05/22 05:47:31;;;;;;;19.73;3.10;;;;;;;9.26;66.55;101109.66;5017884;28;20092;-71
2022/05/22 05:49:58;;;;;;;20.10;3.40;;;;;;;9.43;66.44;101110.75;5017699;28;20096;-71
2022/05/22 05:52:24;;;;;;;20.05;2.92;;;;;;;9.30;66.53;101111.09;5014352;28;20129;-69
2022/05/22 05:54:59;;;;;;;14.02;2.47;;;;;;;9.26;66.89;101106.13;5017678;28;20049;-70
2022/05/22 05:57:25;;;;;;;13.27;2.88;;;;;;;9.27;67.01;101115.88;5017469;28;20144;-71
2022/05/22 05:59:56;;;;;;;13.45;2.85;;;;;;;9.29;67.09;101116.56;5017150;28;20054;-69
2022/05/22 06:02:23;;;;;;;21.25;3.15;;;;;;;9.37;66.81;101113.16;5017506;28;20530;-69
2022/05/22 06:04:50;;;;;;;14.07;3.45;;;;;;;9.50;66.44;101111.88;5017400;28;20485;-71
2022/05/22 06:07:16;;;;;;;12.60;2.63;;;;;;;9.59;66.33;101109.34;5017831;28;20398;-71
2022/05/22 06:09:42;;;;;;;14.65;2.85;;;;;;;9.77;65.91;101113.78;5017251;28;20054;-70
2022/05/22 06:12:09;;;;;;;20.13;3.47;;;;;;;9.74;65.81;101107.88;5017372;28;20053;-70
2022/05/22 06:14:36;;;;;;;15.27;2.30;;;;;;;9.82;65.32;101108.03;5016709;28;20064;-70
2022/05/22 06:17:03;;;;;;;15.25;2.50;;;;;;;9.88;65.12;101110.09;5016951;28;20472;-70
2022/05/22 06:22:15;;;;;;;19.98;2.63;;;;;;;9.90;65.09;101100.09;5016965;28;20132;-71
2022/05/22 06:24:43;;;;;;;16.48;2.78;;;;;;;10.07;64.76;101100.31;5015791;28;20050;-70
2022/05/22 06:27:10;;;;;;;18.95;2.45;;;;;;;10.14;64.08;101104.94;5016227;28;20053;-71
2022/05/22 06:29:37;;;;;;;14.35;2.60;;;;;;;10.11;64.21;101107.06;5017112;28;20132;-70
2022/05/22 06:32:04;;;;;;;12.32;3.30;;;;;;;10.41;63.73;101096.03;5015877;28;20085;-69
2022/05/22 06:34:35;;;;;;;16.25;3.17;;;;;;;10.44;63.52;101101.09;5016003;28;20157;-69
2022/05/22 06:37:03;;;;;;;15.73;3.10;;;;;;;10.49;63.04;101088.06;5015793;28;20061;-70
2022/05/22 06:42:18;;;;;;;13.70;2.30;;;;;;;10.95;62.12;101107.69;5015603;28;20045;-70
2022/05/22 06:45:11;;;;;;;11.90;2.42;;;;;;;10.95;61.50;101101.47;5015592;28;20084;-70
2022/05/22 06:47:38;;;;;;;15.52;2.92;;;;;;;11.15;61.41;101096.81;5015601;28;20092;-70
2022/05/22 06:50:08;;;;;;;12.20;2.38;;;;;;;11.33;60.23;101092.25;5015921;28;20089;-70
2022/05/22 06:52:36;;;;;;;14.13;2.28;;;;;;;11.25;60.44;101085.97;5015066;28;20056;-70
2022/05/22 06:55:04;;;;;;;16.17;3.38;;;;;;;11.16;60.43;101095.78;5015475;28;20057;-71
2022/05/22 06:57:30;;;;;;;24.27;6.35;;;;;;;11.17;60.25;101100.16;4998648;28;20060;-68
2022/05/22 06:59:58;;;;;;;12.20;3.47;;;;;;;11.02;60.59;101097.19;5015899;28;20050;-70
2022/05/22 07:02:29;;;;;;;11.75;2.55;;;;;;;10.70;62.27;101100.41;5015225;28;20080;-70
2022/05/22 07:04:57;;;;;;;9.43;2.03;;;;;;;11.15;60.77;101094.13;5016060;28;20133;-70
2022/05/22 07:07:24;;;;;;;10.90;1.90;;;;;;;11.35;59.68;101090.25;5015388;28;20056;-70
2022/05/22 07:09:50;;;;;;;12.63;2.25;;;;;;;11.43;60.06;101093.00;5015824;28;20545;-70
2022/05/22 07:12:18;;;;;;;12.45;1.90;;;;;;;11.20;60.65;101083.75;4998018;28;20079;-70
2022/05/22 07:14:47;;;;;;;11.77;2.10;;;;;;;11.77;58.90;101099.47;5016069;28;20084;-69
2022/05/22 07:17:15;;;;;;;9.80;2.30;;;;;;;12.23;57.25;101095.50;5015700;28;20092;-69
2022/05/22 07:19:43;;;;;;;18.52;2.88;;;;;;;12.40;55.98;101097.25;5015334;28;20482;-70
2022/05/22 07:22:10;;;;;;;8.35;2.22;;;;;;;12.44;55.37;101092.38;5015392;28;20072;-70
2022/05/22 07:24:37;;;;;;;12.48;2.15;;;;;;;12.26;56.03;101083.56;5014655;28;20050;-70
2022/05/22 07:27:04;;;;;;;12.68;2.20;;;;;;;12.22;56.84;101088.44;5015401;28;20479;-70
2022/05/22 07:29:31;;;;;;;14.18;2.03;;;;;;;11.96;57.49;101082.25;5015522;28;20049;-70
2022/05/22 07:31:57;;;;;;;14.43;3.05;;;;;;;12.15;56.06;101088.25;5015345;28;20133;-70
2022/05/22 07:34:25;;;;;;;12.32;2.13;;;;;;;12.19;55.50;101093.31;5015042;28;20052;-70
2022/05/22 07:37:02;;;;;;;11.13;2.13;;;;;;;12.13;55.95;101079.47;5014572;28;20141;-70
2022/05/22 07:39:28;;;;;;;13.73;1.88;;;;;;;12.55;58.23;101075.91;5015715;28;20140;-68
2022/05/22 07:41:55;;;;;;;8.50;1.50;;;;;;;13.59;54.99;101079.84;4998160;28;20145;-68
2022/05/22 07:44:21;;;;;;;9.23;1.52;;;;;;;14.35;52.00;101089.25;5015077;28;20045;-68
2022/05/22 07:46:49;;;;;;;9.85;1.70;;;;;;;14.44;50.86;101084.66;5014938;28;20133;-69
2022/05/22 07:52:07;;;;;;;9.85;2.00;;;;;;;14.50;49.57;101073.16;5014664;28;20144;-68
2022/05/22 07:54:49;;;;;;;12.15;3.13;;;;;;;14.20;48.81;101074.81;5014936;28;20065;-69
2022/05/22 07:57:16;;;;;;;9.38;2.45;;;;;;;13.92;50.62;101063.63;5014653;28;20092;-68
2022/05/22 07:59:43;;;;;;;8.48;1.70;;;;;;;14.33;49.53;101071.56;5014979;28;20502;-68
2022/05/22 08:02:12;;;;;;;8.40;1.77;;;;;;;14.17;49.06;101081.41;5015255;28;20089;-68
2022/05/22 08:04:43;;;;;;;7.05;1.25;;;;;;;14.06;49.75;101079.94;5014709;28;20054;-68
2022/05/22 08:07:10;;;;;;;4.95;1.20;;;;;;;14.44;48.78;101071.16;5015549;28;20100;-68
2022/05/22 08:09:36;;;;;;;4.47;1.13;;;;;;;14.44;48.24;101068.47;5014864;28;20129;-67
2022/05/22 08:12:03;;;;;;;10.25;1.80;;;;;;;14.27;48.35;101065.00;5014940;28;20549;-68
2022/05/22 08:14:30;;;;;;;7.47;1.63;;;;;;;14.17;49.16;101059.81;5015091;28;20537;-68
2022/05/22 08:17:00;;;;;;;10.98;1.98;;;;;;;13.85;49.93;101049.16;5014946;28;20058;-67
2022/05/22 08:19:26;;;;;;;7.13;1.73;;;;;;;14.17;49.41;101058.97;5015184;28;20081;-68
2022/05/22 08:21:53;;;;;;;7.25;1.52;;;;;;;14.40;48.84;101048.25;5016708;28;20125;-68
2022/05/22 08:24:19;;;;;;;9.05;1.52;;;;;;;14.46;48.28;101050.22;5014450;28;20140;-67
2022/05/22 08:26:46;;;;;;;7.93;1.35;;;;;;;14.76;46.78;101059.34;5014111;28;20054;-67
2022/05/22 08:29:12;;;;;;;7.65;1.42;;;;;;;15.01;46.46;101057.28;5014255;28;20482;-68
2022/05/22 08:31:39;;;;;;;9.05;1.90;;;;;;;14.77;46.54;101061.88;5013739;28;20060;-68
2022/05/22 08:34:07;;;;;;;6.32;1.27;;;;;;;14.67;46.91;101061.25;5014373;28;20050;-68
2022/05/22 08:36:33;;;;;;;6.75;1.42;;;;;;;14.71;46.85;101068.00;5014583;28;20133;-68
2022/05/22 08:39:00;;;;;;;9.70;1.80;;;;;;;14.56;46.91;101053.53;5014135;28;20081;-68
2022/05/22 08:41:32;;;;;;;7.88;1.48;;;;;;;14.71;47.02;101068.00;5014453;28;20125;-68
2022/05/22 08:44:03;;;;;;;6.60;1.35;;;;;;;14.86;46.47;101069.91;5013984;28;20077;-68
2022/05/22 08:46:34;;;;;;;;;;;;;;;14.73;46.86;101068.63;5015803;28;20096;-70
2022/05/22 08:49:14;;;;;;;9.95;1.67;;;;;;;14.92;46.57;101066.50;5018344;28;20051;-67
2022/05/22 08:51:48;;;;;;;21.27;2.60;;;;;;;15.03;46.11;101065.22;5018179;28;20078;-68
2022/05/22 08:54:29;;;;;;;12.50;1.80;;;;;;;15.55;44.73;101064.41;5018414;28;20054;-68
2022/05/22 08:59:45;;;;;;;7.03;1.90;;;;;;;15.32;45.13;101059.88;5018572;28;20023;-69
2022/05/22 09:02:21;;;;;;;7.65;1.85;;;;;;;15.32;45.29;101051.78;5019369;28;20081;-70
2022/05/22 09:05:03;;;;;;;7.47;1.40;;;;;;;15.48;45.18;101050.78;5018418;28;20137;-69
2022/05/22 09:07:52;;;;;;;18.55;2.58;;;;;;;15.48;44.95;101058.91;5018189;28;20145;-68
2022/05/22 09:10:55;;;;;;;11.35;1.63;;;;;;;15.40;44.61;101057.13;5017888;28;20081;-70
2022/05/22 09:13:40;;;;;;;5.65;1.35;;;;;;;15.36;44.91;101047.72;5017798;28;20141;-70
2022/05/22 09:16:28;;;;;;;9.68;2.00;;;;;;;15.32;44.61;101043.66;5017947;28;20498;-69
2022/05/22 09:19:17;;;;;;;16.02;1.85;;;;;;;15.38;44.64;101042.94;5017647;28;20405;-70
2022/05/22 09:22:00;;;;;;;10.20;1.95;;;;;;;15.65;43.33;101033.41;5018240;28;20089;-70
2022/05/22 09:24:49;;;;;;;8.65;1.27;;;;;;;15.67;43.39;101036.78;5017873;28;20093;-69
2022/05/22 09:27:25;;;;;;;6.38;1.65;;;;;;;16.03;42.56;101046.81;5017342;28;20076;-69
2022/05/22 09:30:25;;;;;;;8.45;1.50;;;;;;;15.91;42.13;101051.00;5017630;28;20066;-69
2022/05/22 09:33:10;;;;;;;5.65;1.45;;;;;;;15.90;41.96;101046.63;5012452;28;20141;-70
2022/05/22 09:36:01;;;;;;;6.63;1.27;;;;;;;16.35;41.01;101056.38;5017690;28;20549;-69
2022/05/22 09:38:51;;;;;;;5.37;1.50;;;;;;;16.58;41.19;101042.72;5017788;28;20052;-69
2022/05/22 09:41:45;;;;;;;7.20;1.50;;;;;;;16.44;41.17;101059.81;5017634;28;20088;-69
2022/05/22 09:44:36;;;;;;;7.57;1.50;;;;;;;16.33;40.97;101052.16;5018028;28;20137;-69
2022/05/22 09:47:38;;;;;;;5.35;1.25;;;;;;;16.05;41.66;101058.28;5018200;28;20050;-69
2022/05/22 09:50:16;;;;;;;15.20;2.28;;;;;;;15.68;42.48;101057.38;5017531;28;20470;-69
2022/05/22 09:53:18;;;;;;;8.10;1.48;;;;;;;15.23;43.38;101053.72;5017623;28;20482;-70
2022/05/22 09:55:47;;;;;;;6.20;1.58;;;;;;;15.16;43.79;101065.47;4992318;28;20561;-69
2022/05/22 09:58:43;;;;;;;7.00;1.58;;;;;;;15.82;42.32;101049.44;5016442;28;20136;-69
2022/05/22 10:01:19;;;;;;;6.50;1.25;;;;;;;16.17;41.43;101064.91;5017376;28;20062;-69
2022/05/22 10:04:08;;;;;;;6.40;1.35;;;;;;;16.21;41.27;101048.28;5017218;28;20054;-70
2022/05/22 10:06:46;;;;;;;3.95;1.20;;;;;;;16.22;41.21;101055.38;5017600;28;20100;-69
2022/05/22 10:09:34;;;;;;;6.32;1.38;;;;;;;15.46;42.49;101055.53;5017017;28;20077;-70
2022/05/22 10:12:10;;;;;;;5.90;1.50;;;;;;;15.42;42.94;101067.75;5017495;28;20125;-70
2022/05/22 10:15:17;;;;;;;9.90;1.60;;;;;;;15.59;43.15;101055.72;5016637;28;20136;-69
2022/05/22 10:18:05;;;;;;;5.63;1.83;;;;;;;16.26;42.08;101059.38;5016981;28;20088;-69
2022/05/22 10:20:53;;;;;;;5.95;1.52;;;;;;;16.30;41.66;101058.81;5016347;28;20375;-70
2022/05/22 10:23:50;;;;;;;7.43;1.70;;;;;;;16.06;41.57;101051.03;5016603;28;20081;-69
2022/05/22 10:26:42;;;;;;;8.00;1.60;;;;;;;15.88;42.02;101057.66;5016422;28;20077;-69
2022/05/22 10:29:17;;;;;;;4.82;1.15;;;;;;;15.88;42.04;101051.38;4999387;28;20473;-69
2022/05/22 10:32:05;;;;;;;8.95;1.52;;;;;;;16.54;40.03;101046.84;5016418;28;20136;-69
2022/05/22 10:34:43;;;;;;;4.70;1.17;;;;;;;16.95;38.91;101053.47;5016485;28;20153;-69
2022/05/22 10:37:23;;;;;;;8.45;1.70;;;;;;;17.98;36.74;101047.38;5016676;28;20405;-69
2022/05/22 10:39:50;;;;;;;6.13;1.65;;;;;;;18.03;36.63;101050.34;5016532;28;20120;-69
2022/05/22 10:45:36;;;;;;;9.07;1.67;;;;;;;17.24;37.96;101052.50;5015844;28;20128;-70
2022/05/22 10:48:23;;;;;;;;;;;;;;;16.66;39.26;101053.41;5017993;28;20137;-72
2022/05/22 10:51:06;;;;;;;6.18;1.85;;;;;;;16.60;39.69;101048.75;5015932;28;19928;-72
2022/05/22 10:53:40;;;;;;;6.65;1.45;;;;;;;16.47;39.60;101050.44;5015893;28;20050;-73
2022/05/22 10:56:21;;;;;;;5.95;1.33;;;;;;;16.15;40.57;101042.59;5015782;28;20085;-72
2022/05/22 10:58:53;;;;;;;5.63;2.00;;;;;;;16.37;40.17;101048.06;4998357;28;20049;-73
2022/05/22 11:01:23;;;;;;;7.13;1.70;;;;;;;16.41;40.26;101043.94;4998809;28;20077;-72
2022/05/22 11:04:05;;;;;;;5.15;1.38;;;;;;;16.79;39.64;101049.19;5016271;28;20133;-73
2022/05/22 11:06:34;;;;;;;9.43;1.65;;;;;;;17.29;38.53;101050.03;5016161;28;20056;-72
2022/05/22 11:09:02;;;;;;;8.07;1.30;;;;;;;17.14;39.07;101045.53;5015594;28;20088;-72
2022/05/22 11:11:31;;;;;;;7.97;1.33;;;;;;;16.76;38.95;101031.44;5015863;28;20249;-72
2022/05/22 11:14:16;;;;;;;13.90;1.90;;;;;;;16.49;40.75;101035.69;5016349;28;20508;-74
2022/05/22 11:16:44;;;;;;;7.38;1.10;;;;;;;16.54;42.14;101033.31;5017170;28;20354;-75
2022/05/22 11:19:19;;;;;;;7.00;2.20;;;;;;;16.47;41.76;101035.06;5016353;28;20456;-75
2022/05/22 11:22:14;;;;;;;5.43;2.17;;;;;;;16.89;40.60;101022.59;5016077;28;20089;-75
2022/05/22 11:24:58;;;;;;;5.68;1.88;;;;;;;17.48;39.52;101027.69;5015956;28;20100;-75
2022/05/22 11:27:25;;;;;;;9.45;1.58;;;;;;;17.94;38.72;101035.25;5017009;28;20068;-76
2022/05/22 11:30:08;;;;;;;6.82;1.17;;;;;;;17.50;38.33;101028.31;5014720;28;20077;-74
2022/05/22 11:33:01;;;;;;;5.38;1.40;;;;;;;17.38;37.13;101023.66;5014718;28;20132;-74
2022/05/22 11:35:34;;;;;;;9.32;1.40;;;;;;;16.59;39.53;101014.59;5015508;28;20077;-75
2022/05/22 11:38:22;;;;;;;6.28;1.60;;;;;;;16.17;40.29;101009.94;5016537;28;20140;-75
2022/05/22 11:41:11;;;;;;;5.95;1.60;;;;;;;15.99;41.29;101029.28;5016107;28;20104;-76
2022/05/22 11:44:14;;;;;;;12.23;1.30;;;;;;;15.82;41.65;101025.09;5016765;28;20383;-75
2022/05/22 11:46:55;;;;;;;4.80;1.13;;;;;;;16.00;41.00;101016.59;5016429;28;20482;-75
2022/05/22 11:49:29;;;;;;;;;;;;;;;16.06;41.06;101019.38;5016928;28;20050;-75
2022/05/22 11:55:34;;;;;;;6.35;1.48;;;;;;;16.09;40.70;101024.41;5015807;28;20490;-75
2022/05/22 11:58:17;;;;;;;6.45;1.40;;;;;;;16.24;40.07;101018.13;5015246;28;20054;-75
2022/05/22 12:01:03;;;;;;;3.78;1.10;;;;;;;16.05;39.99;101017.69;5014215;28;20181;-75
2022/05/22 12:03:46;;;;;;;3.60;1.00;;;;;;;16.11;40.28;101011.53;5014486;28;20152;-74
2022/05/22 12:06:53;;;;;;;3.53;0.70;;;;;;;15.85;40.22;101003.91;5015102;28;20108;-75
2022/05/22 12:09:51;;;;;;;8.40;1.45;;;;;;;15.82;40.95;100998.06;5014275;28;20172;-75
2022/05/22 12:12:41;;;;;;;5.35;1.35;;;;;;;15.77;40.78;101008.56;5014251;28;20141;-74